Search for airport 
image banner adimage banner adimage banner ad
image banner ad

3O8 - Harris Ranch

Located in Coalinga, United States

ICAO - 3O8, IATA -

Data provided by Airmate  

General information

Coordinates: N36°14'53" W120°14'18"
Elevation is 470 feet MSL.
Magnetic variation is 15° East
View others Airports in California

Operational data

Special qualification required
Current time UTC:
Current local time:
Weather at : KNLC - Lemoore Nas (Reeves Fld) ( 27 km )
METAR: KNLC 141256Z AUTO 32007KT 10SM CLR 17/13 A2999 RMK AO2 SLP153 T01720128
TAF: TAF COR KNLC 1407/1507 32018G28KT 9999 SKC 520005 QNH2984INS TEMPO 1407/1413 32012KT FM141300 33009KT 9999 FEW250 500000 QNH2994INS FM150000 34012KT 9999 FEW250 QNH2987INS FM150500 33015G20KT 9999 SKC QNH2989INS LAST NO AMDS AFT 1407 NEXT 1415 T18/1413Z T37/1422Z COR 0726 FS30167
View NOTAMs / SUP AIP / TFR affecting this airport [VIEW]
Communications frequencies: [VIEW]

Runways:

RWY identifierQFULength (ft)Width (ft)SurfaceLDA (ft)
14282030ASPH
32282030ASPH

Airport contact information

Address: Coalinga United States

Satellite view of 3O8